sensor_id;sensor_type;location;lat;lon;timestamp;P1;durP1;ratioP1;P2;durP2;ratioP2
6017;SDS011;3037;51.068;13.780;2023-08-21T00:01:14;10.63;;;9.40;;
6017;SDS011;3037;51.068;13.780;2023-08-21T00:03:39;9.43;;;8.37;;
6017;SDS011;3037;51.068;13.780;2023-08-21T00:06:05;10.33;;;9.20;;
6017;SDS011;3037;51.068;13.780;2023-08-21T00:08:30;10.37;;;8.30;;
6017;SDS011;3037;51.068;13.780;2023-08-21T00:10:56;9.67;;;8.83;;
6017;SDS011;3037;51.068;13.780;2023-08-21T00:13:21;8.23;;;7.53;;
6017;SDS011;3037;51.068;13.780;2023-08-21T00:15:47;8.70;;;7.90;;
6017;SDS011;3037;51.068;13.780;2023-08-21T00:18:12;9.50;;;8.60;;
6017;SDS011;3037;51.068;13.780;2023-08-21T00:20:38;10.07;;;8.37;;
6017;SDS011;3037;51.068;13.780;2023-08-21T00:23:06;8.57;;;7.87;;
6017;SDS011;3037;51.068;13.780;2023-08-21T00:25:33;11.33;;;8.40;;
6017;SDS011;3037;51.068;13.780;2023-08-21T00:27:58;7.70;;;7.00;;
6017;SDS011;3037;51.068;13.780;2023-08-21T00:30:24;13.70;;;9.17;;
6017;SDS011;3037;51.068;13.780;2023-08-21T00:32:49;10.27;;;8.83;;
6017;SDS011;3037;51.068;13.780;2023-08-21T00:35:15;9.00;;;8.20;;
6017;SDS011;3037;51.068;13.780;2023-08-21T00:37:40;11.90;;;8.23;;
6017;SDS011;3037;51.068;13.780;2023-08-21T00:40:06;9.27;;;8.27;;
6017;SDS011;3037;51.068;13.780;2023-08-21T00:42:32;8.90;;;8.10;;
6017;SDS011;3037;51.068;13.780;2023-08-21T00:44:58;16.57;;;8.77;;
6017;SDS011;3037;51.068;13.780;2023-08-21T00:47:23;9.50;;;7.67;;
6017;SDS011;3037;51.068;13.780;2023-08-21T00:49:50;10.13;;;8.67;;
6017;SDS011;3037;51.068;13.780;2023-08-21T00:52:15;11.07;;;8.60;;
6017;SDS011;3037;51.068;13.780;2023-08-21T00:54:42;8.67;;;7.63;;
6017;SDS011;3037;51.068;13.780;2023-08-21T00:57:08;9.07;;;8.07;;
6017;SDS011;3037;51.068;13.780;2023-08-21T00:59:35;11.60;;;8.20;;
6017;SDS011;3037;51.068;13.780;2023-08-21T01:02:01;9.83;;;7.87;;
6017;SDS011;3037;51.068;13.780;2023-08-21T01:04:26;9.37;;;8.57;;
6017;SDS011;3037;51.068;13.780;2023-08-21T01:06:52;9.43;;;7.70;;
6017;SDS011;3037;51.068;13.780;2023-08-21T01:09:22;8.93;;;7.90;;
6017;SDS011;3037;51.068;13.780;2023-08-21T01:14:34;10.43;;;7.37;;
6017;SDS011;3037;51.068;13.780;2023-08-21T01:17:08;10.53;;;8.80;;
6017;SDS011;3037;51.068;13.780;2023-08-21T01:19:40;8.47;;;7.70;;
6017;SDS011;3037;51.068;13.780;2023-08-21T01:22:07;8.47;;;7.20;;
6017;SDS011;3037;51.068;13.780;2023-08-21T01:24:33;8.80;;;8.00;;
6017;SDS011;3037;51.068;13.780;2023-08-21T01:26:59;20.90;;;8.13;;
6017;SDS011;3037;51.068;13.780;2023-08-21T01:29:25;10.63;;;6.90;;
6017;SDS011;3037;51.068;13.780;2023-08-21T01:31:58;7.10;;;6.43;;
6017;SDS011;3037;51.068;13.780;2023-08-21T01:34:30;8.77;;;7.97;;
6017;SDS011;3037;51.068;13.780;2023-08-21T01:36:58;7.70;;;7.00;;
6017;SDS011;3037;51.068;13.780;2023-08-21T01:39:25;12.93;;;7.33;;
6017;SDS011;3037;51.068;13.780;2023-08-21T01:41:50;12.03;;;7.37;;
6017;SDS011;3037;51.068;13.780;2023-08-21T01:44:16;8.37;;;7.17;;
6017;SDS011;3037;51.068;13.780;2023-08-21T01:46:41;14.70;;;7.53;;
6017;SDS011;3037;51.068;13.780;2023-08-21T01:49:07;7.93;;;7.10;;
6017;SDS011;3037;51.068;13.780;2023-08-21T01:51:32;7.83;;;6.20;;
6017;SDS011;3037;51.068;13.780;2023-08-21T01:53:58;13.50;;;7.00;;
6017;SDS011;3037;51.068;13.780;2023-08-21T01:56:23;15.33;;;7.13;;
6017;SDS011;3037;51.068;13.780;2023-08-21T01:58:49;7.50;;;6.60;;
6017;SDS011;3037;51.068;13.780;2023-08-21T02:01:14;15.40;;;6.90;;
6017;SDS011;3037;51.068;13.780;2023-08-21T02:03:40;6.67;;;6.07;;
6017;SDS011;3037;51.068;13.780;2023-08-21T02:06:06;10.23;;;7.10;;
6017;SDS011;3037;51.068;13.780;2023-08-21T02:08:32;8.67;;;7.60;;
6017;SDS011;3037;51.068;13.780;2023-08-21T02:10:58;7.27;;;6.70;;
6017;SDS011;3037;51.068;13.780;2023-08-21T02:13:23;7.57;;;6.90;;
6017;SDS011;3037;51.068;13.780;2023-08-21T02:15:49;14.90;;;7.10;;
6017;SDS011;3037;51.068;13.780;2023-08-21T02:18:14;9.70;;;6.77;;
6017;SDS011;3037;51.068;13.780;2023-08-21T02:20:40;7.20;;;6.60;;
6017;SDS011;3037;51.068;13.780;2023-08-21T02:23:06;8.77;;;7.63;;
6017;SDS011;3037;51.068;13.780;2023-08-21T02:25:32;7.50;;;6.80;;
6017;SDS011;3037;51.068;13.780;2023-08-21T02:27:57;8.27;;;6.40;;
6017;SDS011;3037;51.068;13.780;2023-08-21T02:30:23;6.30;;;5.80;;
6017;SDS011;3037;51.068;13.780;2023-08-21T02:32:50;9.00;;;7.30;;
6017;SDS011;3037;51.068;13.780;2023-08-21T02:35:17;8.57;;;7.13;;
6017;SDS011;3037;51.068;13.780;2023-08-21T02:37:42;7.77;;;7.03;;
6017;SDS011;3037;51.068;13.780;2023-08-21T02:40:08;9.00;;;8.30;;
6017;SDS011;3037;51.068;13.780;2023-08-21T02:42:34;13.00;;;7.83;;
6017;SDS011;3037;51.068;13.780;2023-08-21T02:45:00;7.90;;;6.97;;
6017;SDS011;3037;51.068;13.780;2023-08-21T02:47:28;9.73;;;7.13;;
6017;SDS011;3037;51.068;13.780;2023-08-21T02:49:54;8.10;;;7.40;;
6017;SDS011;3037;51.068;13.780;2023-08-21T02:52:20;9.60;;;7.70;;
6017;SDS011;3037;51.068;13.780;2023-08-21T02:54:45;12.73;;;8.50;;
6017;SDS011;3037;51.068;13.780;2023-08-21T02:57:11;11.80;;;7.33;;
6017;SDS011;3037;51.068;13.780;2023-08-21T02:59:37;13.50;;;7.60;;
6017;SDS011;3037;51.068;13.780;2023-08-21T03:02:02;13.77;;;7.13;;
6017;SDS011;3037;51.068;13.780;2023-08-21T03:04:28;8.60;;;6.40;;
6017;SDS011;3037;51.068;13.780;2023-08-21T03:06:53;7.50;;;6.80;;
6017;SDS011;3037;51.068;13.780;2023-08-21T03:09:19;10.00;;;7.13;;
6017;SDS011;3037;51.068;13.780;2023-08-21T03:11:44;9.53;;;7.10;;
6017;SDS011;3037;51.068;13.780;2023-08-21T03:14:10;10.30;;;7.00;;
6017;SDS011;3037;51.068;13.780;2023-08-21T03:16:35;12.13;;;7.07;;
6017;SDS011;3037;51.068;13.780;2023-08-21T03:19:01;7.63;;;7.03;;
6017;SDS011;3037;51.068;13.780;2023-08-21T03:21:27;9.83;;;6.07;;
6017;SDS011;3037;51.068;13.780;2023-08-21T03:23:56;15.07;;;6.10;;
6017;SDS011;3037;51.068;13.780;2023-08-21T03:26:24;7.10;;;6.40;;
6017;SDS011;3037;51.068;13.780;2023-08-21T03:28:49;10.07;;;6.90;;
6017;SDS011;3037;51.068;13.780;2023-08-21T03:31:15;14.70;;;6.97;;
6017;SDS011;3037;51.068;13.780;2023-08-21T03:33:41;12.50;;;7.57;;
6017;SDS011;3037;51.068;13.780;2023-08-21T03:36:06;10.10;;;7.53;;
6017;SDS011;3037;51.068;13.780;2023-08-21T03:38:32;7.23;;;6.50;;
6017;SDS011;3037;51.068;13.780;2023-08-21T03:40:58;14.70;;;6.90;;
6017;SDS011;3037;51.068;13.780;2023-08-21T03:43:24;7.97;;;6.70;;
6017;SDS011;3037;51.068;13.780;2023-08-21T03:45:50;7.20;;;6.50;;
6017;SDS011;3037;51.068;13.780;2023-08-21T03:48:15;10.90;;;6.57;;
6017;SDS011;3037;51.068;13.780;2023-08-21T03:50:41;6.77;;;6.17;;
6017;SDS011;3037;51.068;13.780;2023-08-21T03:53:06;7.37;;;6.73;;
6017;SDS011;3037;51.068;13.780;2023-08-21T03:55:32;7.87;;;7.10;;
6017;SDS011;3037;51.068;13.780;2023-08-21T03:57:58;12.60;;;8.03;;
6017;SDS011;3037;51.068;13.780;2023-08-21T04:00:23;9.43;;;7.73;;
6017;SDS011;3037;51.068;13.780;2023-08-21T04:02:49;12.53;;;8.20;;
6017;SDS011;3037;51.068;13.780;2023-08-21T04:05:14;12.70;;;7.70;;
6017;SDS011;3037;51.068;13.780;2023-08-21T04:07:41;12.93;;;7.10;;
6017;SDS011;3037;51.068;13.780;2023-08-21T04:10:06;6.77;;;6.00;;
6017;SDS011;3037;51.068;13.780;2023-08-21T04:12:32;9.23;;;6.40;;
6017;SDS011;3037;51.068;13.780;2023-08-21T04:14:58;12.50;;;8.13;;
6017;SDS011;3037;51.068;13.780;2023-08-21T04:17:23;9.30;;;6.47;;
6017;SDS011;3037;51.068;13.780;2023-08-21T04:19:49;10.53;;;7.53;;
6017;SDS011;3037;51.068;13.780;2023-08-21T04:22:15;9.00;;;6.90;;
6017;SDS011;3037;51.068;13.780;2023-08-21T04:24:41;18.80;;;7.60;;
6017;SDS011;3037;51.068;13.780;2023-08-21T04:27:07;7.97;;;7.30;;
6017;SDS011;3037;51.068;13.780;2023-08-21T04:29:33;9.60;;;7.10;;
6017;SDS011;3037;51.068;13.780;2023-08-21T04:32:00;11.50;;;8.07;;
6017;SDS011;3037;51.068;13.780;2023-08-21T04:34:25;11.17;;;8.00;;
6017;SDS011;3037;51.068;13.780;2023-08-21T04:36:51;23.30;;;7.90;;
6017;SDS011;3037;51.068;13.780;2023-08-21T04:39:17;9.83;;;7.17;;
6017;SDS011;3037;51.068;13.780;2023-08-21T04:41:43;8.30;;;7.50;;
6017;SDS011;3037;51.068;13.780;2023-08-21T04:44:08;9.80;;;7.23;;
6017;SDS011;3037;51.068;13.780;2023-08-21T04:46:34;10.80;;;7.00;;
6017;SDS011;3037;51.068;13.780;2023-08-21T04:48:59;11.00;;;7.50;;
6017;SDS011;3037;51.068;13.780;2023-08-21T04:51:25;14.50;;;7.53;;
6017;SDS011;3037;51.068;13.780;2023-08-21T04:53:50;6.83;;;6.13;;
6017;SDS011;3037;51.068;13.780;2023-08-21T04:56:16;17.93;;;6.50;;
6017;SDS011;3037;51.068;13.780;2023-08-21T04:58:41;11.37;;;6.50;;
6017;SDS011;3037;51.068;13.780;2023-08-21T05:01:07;10.83;;;7.60;;
6017;SDS011;3037;51.068;13.780;2023-08-21T05:03:32;17.80;;;7.20;;
6017;SDS011;3037;51.068;13.780;2023-08-21T05:05:58;9.50;;;6.80;;
6017;SDS011;3037;51.068;13.780;2023-08-21T05:08:24;18.07;;;7.40;;
6017;SDS011;3037;51.068;13.780;2023-08-21T05:10:54;14.50;;;6.57;;
6017;SDS011;3037;51.068;13.780;2023-08-21T05:13:20;10.90;;;7.33;;
6017;SDS011;3037;51.068;13.780;2023-08-21T05:15:50;17.70;;;7.20;;
6017;SDS011;3037;51.068;13.780;2023-08-21T05:18:23;8.80;;;6.40;;
6017;SDS011;3037;51.068;13.780;2023-08-21T05:20:49;10.70;;;7.10;;
6017;SDS011;3037;51.068;13.780;2023-08-21T05:23:15;13.43;;;6.83;;
6017;SDS011;3037;51.068;13.780;2023-08-21T05:25:42;8.67;;;7.77;;
6017;SDS011;3037;51.068;13.780;2023-08-21T05:28:08;12.67;;;7.80;;
6017;SDS011;3037;51.068;13.780;2023-08-21T05:30:35;13.00;;;8.97;;
6017;SDS011;3037;51.068;13.780;2023-08-21T05:33:01;13.53;;;8.83;;
6017;SDS011;3037;51.068;13.780;2023-08-21T05:35:27;9.60;;;7.60;;
6017;SDS011;3037;51.068;13.780;2023-08-21T05:37:52;12.57;;;7.13;;
6017;SDS011;3037;51.068;13.780;2023-08-21T05:40:18;10.37;;;8.70;;
6017;SDS011;3037;51.068;13.780;2023-08-21T05:42:44;10.23;;;9.33;;
6017;SDS011;3037;51.068;13.780;2023-08-21T05:45:09;10.87;;;8.00;;
6017;SDS011;3037;51.068;13.780;2023-08-21T05:47:35;13.43;;;8.50;;
6017;SDS011;3037;51.068;13.780;2023-08-21T05:50:01;9.97;;;9.07;;
6017;SDS011;3037;51.068;13.780;2023-08-21T05:52:27;11.13;;;8.60;;
6017;SDS011;3037;51.068;13.780;2023-08-21T05:54:52;9.73;;;8.83;;
6017;SDS011;3037;51.068;13.780;2023-08-21T05:57:18;11.17;;;9.27;;
6017;SDS011;3037;51.068;13.780;2023-08-21T05:59:46;10.07;;;9.10;;
6017;SDS011;3037;51.068;13.780;2023-08-21T06:02:12;10.77;;;9.87;;
6017;SDS011;3037;51.068;13.780;2023-08-21T06:04:42;16.93;;;10.77;;
6017;SDS011;3037;51.068;13.780;2023-08-21T06:07:08;10.63;;;9.50;;
6017;SDS011;3037;51.068;13.780;2023-08-21T06:09:34;15.03;;;9.43;;
6017;SDS011;3037;51.068;13.780;2023-08-21T06:12:01;10.20;;;7.90;;
6017;SDS011;3037;51.068;13.780;2023-08-21T06:14:27;11.50;;;8.60;;
6017;SDS011;3037;51.068;13.780;2023-08-21T06:16:59;8.70;;;7.83;;
6017;SDS011;3037;51.068;13.780;2023-08-21T06:19:25;12.13;;;8.20;;
6017;SDS011;3037;51.068;13.780;2023-08-21T06:21:50;19.70;;;9.90;;
6017;SDS011;3037;51.068;13.780;2023-08-21T06:24:16;9.97;;;8.97;;
6017;SDS011;3037;51.068;13.780;2023-08-21T06:26:41;11.53;;;9.80;;
6017;SDS011;3037;51.068;13.780;2023-08-21T06:29:07;9.10;;;8.07;;
6017;SDS011;3037;51.068;13.780;2023-08-21T06:31:32;9.40;;;8.50;;
6017;SDS011;3037;51.068;13.780;2023-08-21T06:33:58;10.80;;;8.87;;
6017;SDS011;3037;51.068;13.780;2023-08-21T06:36:24;9.53;;;8.63;;
6017;SDS011;3037;51.068;13.780;2023-08-21T06:38:49;8.83;;;7.93;;
6017;SDS011;3037;51.068;13.780;2023-08-21T06:41:15;16.23;;;8.60;;
6017;SDS011;3037;51.068;13.780;2023-08-21T06:43:40;10.03;;;7.60;;
6017;SDS011;3037;51.068;13.780;2023-08-21T06:46:06;8.77;;;7.90;;
6017;SDS011;3037;51.068;13.780;2023-08-21T06:48:32;13.33;;;8.53;;
6017;SDS011;3037;51.068;13.780;2023-08-21T06:50:59;8.80;;;7.93;;
6017;SDS011;3037;51.068;13.780;2023-08-21T06:53:24;10.63;;;8.10;;
6017;SDS011;3037;51.068;13.780;2023-08-21T06:55:50;9.70;;;7.60;;
6017;SDS011;3037;51.068;13.780;2023-08-21T06:58:15;8.37;;;7.57;;
6017;SDS011;3037;51.068;13.780;2023-08-21T07:00:41;8.20;;;7.50;;
6017;SDS011;3037;51.068;13.780;2023-08-21T07:03:06;8.70;;;7.37;;
6017;SDS011;3037;51.068;13.780;2023-08-21T07:05:33;8.47;;;7.50;;
6017;SDS011;3037;51.068;13.780;2023-08-21T07:07:58;7.57;;;6.77;;
6017;SDS011;3037;51.068;13.780;2023-08-21T07:10:24;11.27;;;7.20;;
6017;SDS011;3037;51.068;13.780;2023-08-21T07:12:50;9.23;;;7.30;;
6017;SDS011;3037;51.068;13.780;2023-08-21T07:15:16;11.67;;;7.13;;
6017;SDS011;3037;51.068;13.780;2023-08-21T07:17:41;7.67;;;6.90;;
6017;SDS011;3037;51.068;13.780;2023-08-21T07:20:07;8.60;;;7.53;;
6017;SDS011;3037;51.068;13.780;2023-08-21T07:22:33;8.47;;;7.43;;
6017;SDS011;3037;51.068;13.780;2023-08-21T07:24:58;12.73;;;7.63;;
6017;SDS011;3037;51.068;13.780;2023-08-21T07:27:28;8.47;;;7.70;;
6017;SDS011;3037;51.068;13.780;2023-08-21T07:29:54;13.10;;;7.10;;
6017;SDS011;3037;51.068;13.780;2023-08-21T07:32:20;12.10;;;7.37;;
6017;SDS011;3037;51.068;13.780;2023-08-21T07:34:45;8.20;;;7.40;;
6017;SDS011;3037;51.068;13.780;2023-08-21T07:37:11;13.50;;;7.93;;
6017;SDS011;3037;51.068;13.780;2023-08-21T07:39:36;11.40;;;7.57;;
6017;SDS011;3037;51.068;13.780;2023-08-21T07:42:02;8.57;;;7.30;;
6017;SDS011;3037;51.068;13.780;2023-08-21T07:44:27;8.10;;;7.20;;
6017;SDS011;3037;51.068;13.780;2023-08-21T07:46:53;14.67;;;7.57;;
6017;SDS011;3037;51.068;13.780;2023-08-21T07:49:18;7.23;;;6.70;;
6017;SDS011;3037;51.068;13.780;2023-08-21T07:51:44;10.43;;;8.10;;
6017;SDS011;3037;51.068;13.780;2023-08-21T07:54:09;8.67;;;7.77;;
6017;SDS011;3037;51.068;13.780;2023-08-21T07:56:36;7.07;;;6.53;;
6017;SDS011;3037;51.068;13.780;2023-08-21T07:59:02;8.30;;;7.47;;
6017;SDS011;3037;51.068;13.780;2023-08-21T08:01:28;8.83;;;7.10;;
6017;SDS011;3037;51.068;13.780;2023-08-21T08:03:53;8.00;;;7.27;;
6017;SDS011;3037;51.068;13.780;2023-08-21T08:06:19;14.77;;;7.30;;
6017;SDS011;3037;51.068;13.780;2023-08-21T08:08:44;8.23;;;7.43;;
6017;SDS011;3037;51.068;13.780;2023-08-21T08:11:10;10.50;;;6.60;;
6017;SDS011;3037;51.068;13.780;2023-08-21T08:13:36;8.20;;;6.50;;
6017;SDS011;3037;51.068;13.780;2023-08-21T08:16:02;8.37;;;6.60;;
6017;SDS011;3037;51.068;13.780;2023-08-21T08:18:27;8.37;;;7.57;;
6017;SDS011;3037;51.068;13.780;2023-08-21T08:20:53;9.60;;;7.60;;
6017;SDS011;3037;51.068;13.780;2023-08-21T08:23:19;8.73;;;7.33;;
6017;SDS011;3037;51.068;13.780;2023-08-21T08:25:45;7.77;;;6.97;;
6017;SDS011;3037;51.068;13.780;2023-08-21T08:28:10;7.73;;;7.03;;
6017;SDS011;3037;51.068;13.780;2023-08-21T08:30:36;9.73;;;8.17;;
6017;SDS011;3037;51.068;13.780;2023-08-21T08:33:01;8.97;;;7.60;;
6017;SDS011;3037;51.068;13.780;2023-08-21T08:35:27;7.60;;;6.97;;
6017;SDS011;3037;51.068;13.780;2023-08-21T08:37:52;8.87;;;7.23;;
6017;SDS011;3037;51.068;13.780;2023-08-21T08:40:18;8.83;;;7.80;;
6017;SDS011;3037;51.068;13.780;2023-08-21T08:42:44;9.20;;;8.23;;
6017;SDS011;3037;51.068;13.780;2023-08-21T08:45:09;7.87;;;7.13;;
6017;SDS011;3037;51.068;13.780;2023-08-21T08:47:38;16.00;;;7.93;;
6017;SDS011;3037;51.068;13.780;2023-08-21T08:50:06;10.40;;;8.20;;
6017;SDS011;3037;51.068;13.780;2023-08-21T08:52:37;11.43;;;7.13;;
6017;SDS011;3037;51.068;13.780;2023-08-21T08:55:03;8.57;;;7.17;;
6017;SDS011;3037;51.068;13.780;2023-08-21T08:57:31;10.17;;;7.73;;
6017;SDS011;3037;51.068;13.780;2023-08-21T08:59:57;6.97;;;6.50;;
6017;SDS011;3037;51.068;13.780;2023-08-21T09:02:24;7.47;;;6.77;;
6017;SDS011;3037;51.068;13.780;2023-08-21T09:04:51;7.73;;;7.03;;
6017;SDS011;3037;51.068;13.780;2023-08-21T09:07:17;10.43;;;7.00;;
6017;SDS011;3037;51.068;13.780;2023-08-21T09:09:45;10.13;;;7.20;;
6017;SDS011;3037;51.068;13.780;2023-08-21T09:12:14;7.23;;;6.60;;
6017;SDS011;3037;51.068;13.780;2023-08-21T09:14:40;7.77;;;7.27;;
6017;SDS011;3037;51.068;13.780;2023-08-21T09:17:07;8.53;;;7.20;;
6017;SDS011;3037;51.068;13.780;2023-08-21T09:19:33;8.90;;;8.10;;
6017;SDS011;3037;51.068;13.780;2023-08-21T09:21:59;7.87;;;7.20;;
6017;SDS011;3037;51.068;13.780;2023-08-21T09:24:33;9.37;;;7.50;;
6017;SDS011;3037;51.068;13.780;2023-08-21T09:26:58;6.53;;;6.03;;
6017;SDS011;3037;51.068;13.780;2023-08-21T09:29:26;9.10;;;7.60;;
6017;SDS011;3037;51.068;13.780;2023-08-21T09:31:55;11.03;;;7.60;;
6017;SDS011;3037;51.068;13.780;2023-08-21T09:34:21;8.20;;;7.50;;
6017;SDS011;3037;51.068;13.780;2023-08-21T09:36:53;11.40;;;7.70;;
6017;SDS011;3037;51.068;13.780;2023-08-21T09:39:20;8.60;;;6.50;;
6017;SDS011;3037;51.068;13.780;2023-08-21T09:41:54;9.20;;;7.37;;
6017;SDS011;3037;51.068;13.780;2023-08-21T09:44:21;7.70;;;6.73;;
6017;SDS011;3037;51.068;13.780;2023-08-21T09:46:49;8.67;;;6.87;;
6017;SDS011;3037;51.068;13.780;2023-08-21T09:49:15;7.03;;;6.43;;
6017;SDS011;3037;51.068;13.780;2023-08-21T09:51:42;6.80;;;6.40;;
6017;SDS011;3037;51.068;13.780;2023-08-21T09:54:10;6.97;;;6.37;;
6017;SDS011;3037;51.068;13.780;2023-08-21T09:56:37;7.93;;;5.30;;
6017;SDS011;3037;51.068;13.780;2023-08-21T09:59:02;10.13;;;6.27;;
6017;SDS011;3037;51.068;13.780;2023-08-21T10:01:28;6.47;;;5.93;;
6017;SDS011;3037;51.068;13.780;2023-08-21T10:03:58;6.33;;;5.83;;
6017;SDS011;3037;51.068;13.780;2023-08-21T10:06:28;6.90;;;6.23;;
6017;SDS011;3037;51.068;13.780;2023-08-21T10:08:54;6.70;;;5.60;;
6017;SDS011;3037;51.068;13.780;2023-08-21T10:11:22;6.70;;;5.10;;
6017;SDS011;3037;51.068;13.780;2023-08-21T10:13:48;6.27;;;5.63;;
6017;SDS011;3037;51.068;13.780;2023-08-21T10:16:16;5.20;;;4.73;;
6017;SDS011;3037;51.068;13.780;2023-08-21T10:18:43;5.90;;;5.20;;
6017;SDS011;3037;51.068;13.780;2023-08-21T10:21:18;6.13;;;5.33;;
6017;SDS011;3037;51.068;13.780;2023-08-21T10:23:48;5.40;;;5.00;;
6017;SDS011;3037;51.068;13.780;2023-08-21T10:26:15;7.83;;;4.97;;
6017;SDS011;3037;51.068;13.780;2023-08-21T10:28:51;6.27;;;5.80;;
6017;SDS011;3037;51.068;13.780;2023-08-21T10:31:28;6.50;;;4.90;;
6017;SDS011;3037;51.068;13.780;2023-08-21T10:33:59;11.20;;;6.00;;
6017;SDS011;3037;51.068;13.780;2023-08-21T10:39:05;5.73;;;5.20;;
6017;SDS011;3037;51.068;13.780;2023-08-21T10:44:33;4.57;;;4.17;;
6017;SDS011;3037;51.068;13.780;2023-08-21T10:47:21;5.30;;;4.80;;
6017;SDS011;3037;51.068;13.780;2023-08-21T10:49:54;4.57;;;4.33;;
6017;SDS011;3037;51.068;13.780;2023-08-21T10:52:25;5.83;;;5.10;;
6017;SDS011;3037;51.068;13.780;2023-08-21T10:54:55;5.27;;;4.53;;
6017;SDS011;3037;51.068;13.780;2023-08-21T10:57:26;10.23;;;4.87;;
6017;SDS011;3037;51.068;13.780;2023-08-21T10:59:54;6.10;;;4.27;;
6017;SDS011;3037;51.068;13.780;2023-08-21T11:02:24;5.10;;;4.57;;
6017;SDS011;3037;51.068;13.780;2023-08-21T11:04:52;5.47;;;5.07;;
6017;SDS011;3037;51.068;13.780;2023-08-21T11:07:18;5.57;;;5.07;;
6017;SDS011;3037;51.068;13.780;2023-08-21T11:09:44;6.70;;;5.57;;
6017;SDS011;3037;51.068;13.780;2023-08-21T11:12:13;5.27;;;4.87;;
6017;SDS011;3037;51.068;13.780;2023-08-21T11:14:41;5.63;;;5.10;;
6017;SDS011;3037;51.068;13.780;2023-08-21T11:17:08;6.13;;;5.73;;
6017;SDS011;3037;51.068;13.780;2023-08-21T11:19:34;5.30;;;4.90;;
6017;SDS011;3037;51.068;13.780;2023-08-21T11:22:01;5.40;;;5.00;;
6017;SDS011;3037;51.068;13.780;2023-08-21T11:27:03;5.60;;;5.20;;
6017;SDS011;3037;51.068;13.780;2023-08-21T11:29:39;7.93;;;4.73;;
6017;SDS011;3037;51.068;13.780;2023-08-21T11:32:12;6.53;;;5.63;;
6017;SDS011;3037;51.068;13.780;2023-08-21T11:34:40;5.97;;;5.30;;
6017;SDS011;3037;51.068;13.780;2023-08-21T11:37:28;6.30;;;5.40;;
6017;SDS011;3037;51.068;13.780;2023-08-21T11:39:54;5.30;;;4.90;;
6017;SDS011;3037;51.068;13.780;2023-08-21T11:42:21;5.60;;;5.20;;
6017;SDS011;3037;51.068;13.780;2023-08-21T11:44:53;6.10;;;5.60;;
6017;SDS011;3037;51.068;13.780;2023-08-21T11:47:19;7.40;;;6.37;;
6017;SDS011;3037;51.068;13.780;2023-08-21T11:49:46;6.90;;;6.27;;
6017;SDS011;3037;51.068;13.780;2023-08-21T11:52:14;7.47;;;5.70;;
6017;SDS011;3037;51.068;13.780;2023-08-21T11:54:43;6.57;;;5.80;;
6017;SDS011;3037;51.068;13.780;2023-08-21T11:57:12;6.23;;;5.73;;
6017;SDS011;3037;51.068;13.780;2023-08-21T11:59:39;10.43;;;6.23;;
6017;SDS011;3037;51.068;13.780;2023-08-21T12:02:13;8.63;;;5.70;;
6017;SDS011;3037;51.068;13.780;2023-08-21T12:04:41;6.83;;;6.10;;
6017;SDS011;3037;51.068;13.780;2023-08-21T12:07:07;6.60;;;5.53;;
6017;SDS011;3037;51.068;13.780;2023-08-21T12:09:33;8.93;;;5.80;;
6017;SDS011;3037;51.068;13.780;2023-08-21T12:11:58;9.33;;;6.60;;
6017;SDS011;3037;51.068;13.780;2023-08-21T12:14:24;8.13;;;5.60;;
6017;SDS011;3037;51.068;13.780;2023-08-21T12:16:50;7.47;;;6.40;;
6017;SDS011;3037;51.068;13.780;2023-08-21T12:19:15;7.33;;;6.73;;
6017;SDS011;3037;51.068;13.780;2023-08-21T12:21:41;11.53;;;6.50;;
6017;SDS011;3037;51.068;13.780;2023-08-21T12:24:06;9.87;;;6.87;;
6017;SDS011;3037;51.068;13.780;2023-08-21T12:26:32;6.57;;;6.00;;
6017;SDS011;3037;51.068;13.780;2023-08-21T12:29:00;5.90;;;5.50;;
6017;SDS011;3037;51.068;13.780;2023-08-21T12:31:26;7.70;;;6.50;;
6017;SDS011;3037;51.068;13.780;2023-08-21T12:33:51;7.20;;;6.60;;
6017;SDS011;3037;51.068;13.780;2023-08-21T12:36:17;8.20;;;6.70;;
6017;SDS011;3037;51.068;13.780;2023-08-21T12:38:43;21.53;;;7.03;;
6017;SDS011;3037;51.068;13.780;2023-08-21T12:41:08;9.83;;;7.03;;
6017;SDS011;3037;51.068;13.780;2023-08-21T12:43:34;8.00;;;6.80;;
6017;SDS011;3037;51.068;13.780;2023-08-21T12:45:59;8.63;;;6.90;;
6017;SDS011;3037;51.068;13.780;2023-08-21T12:48:25;12.67;;;6.50;;
6017;SDS011;3037;51.068;13.780;2023-08-21T12:50:50;11.20;;;5.30;;
6017;SDS011;3037;51.068;13.780;2023-08-21T12:53:16;5.77;;;5.33;;
6017;SDS011;3037;51.068;13.780;2023-08-21T12:55:42;6.57;;;6.07;;
6017;SDS011;3037;51.068;13.780;2023-08-21T12:58:07;6.50;;;5.90;;
6017;SDS011;3037;51.068;13.780;2023-08-21T13:00:33;6.90;;;6.30;;
6017;SDS011;3037;51.068;13.780;2023-08-21T13:02:59;7.47;;;6.20;;
6017;SDS011;3037;51.068;13.780;2023-08-21T13:05:24;11.03;;;7.40;;
6017;SDS011;3037;51.068;13.780;2023-08-21T13:07:50;10.43;;;5.70;;
6017;SDS011;3037;51.068;13.780;2023-08-21T13:10:15;7.17;;;5.10;;
6017;SDS011;3037;51.068;13.780;2023-08-21T13:12:41;5.90;;;5.50;;
6017;SDS011;3037;51.068;13.780;2023-08-21T13:15:07;6.20;;;5.30;;
6017;SDS011;3037;51.068;13.780;2023-08-21T13:17:33;7.07;;;6.33;;
6017;SDS011;3037;51.068;13.780;2023-08-21T13:19:59;13.43;;;6.07;;
6017;SDS011;3037;51.068;13.780;2023-08-21T13:22:24;7.40;;;5.10;;
6017;SDS011;3037;51.068;13.780;2023-08-21T13:24:50;9.13;;;6.03;;
6017;SDS011;3037;51.068;13.780;2023-08-21T13:27:15;5.80;;;5.27;;
6017;SDS011;3037;51.068;13.780;2023-08-21T13:29:41;10.53;;;5.97;;
6017;SDS011;3037;51.068;13.780;2023-08-21T13:32:06;11.60;;;5.60;;
6017;SDS011;3037;51.068;13.780;2023-08-21T13:34:32;6.07;;;5.57;;
6017;SDS011;3037;51.068;13.780;2023-08-21T13:36:58;6.50;;;5.77;;
6017;SDS011;3037;51.068;13.780;2023-08-21T13:39:23;16.23;;;6.23;;
6017;SDS011;3037;51.068;13.780;2023-08-21T13:41:51;14.40;;;6.27;;
6017;SDS011;3037;51.068;13.780;2023-08-21T13:44:16;7.47;;;6.33;;
6017;SDS011;3037;51.068;13.780;2023-08-21T13:46:42;6.87;;;5.57;;
6017;SDS011;3037;51.068;13.780;2023-08-21T13:49:08;5.97;;;5.43;;
6017;SDS011;3037;51.068;13.780;2023-08-21T13:51:34;10.47;;;6.53;;
6017;SDS011;3037;51.068;13.780;2023-08-21T13:53:59;11.33;;;6.30;;
6017;SDS011;3037;51.068;13.780;2023-08-21T13:56:25;11.10;;;6.20;;
6017;SDS011;3037;51.068;13.780;2023-08-21T13:58:51;7.13;;;6.50;;
6017;SDS011;3037;51.068;13.780;2023-08-21T14:01:16;6.80;;;6.20;;
6017;SDS011;3037;51.068;13.780;2023-08-21T14:03:42;8.83;;;6.43;;
6017;SDS011;3037;51.068;13.780;2023-08-21T14:06:07;8.40;;;5.97;;
6017;SDS011;3037;51.068;13.780;2023-08-21T14:08:36;6.40;;;5.80;;
6017;SDS011;3037;51.068;13.780;2023-08-21T14:11:02;6.40;;;6.00;;
6017;SDS011;3037;51.068;13.780;2023-08-21T14:13:27;7.67;;;6.00;;
6017;SDS011;3037;51.068;13.780;2023-08-21T14:15:53;7.63;;;6.33;;
6017;SDS011;3037;51.068;13.780;2023-08-21T14:18:19;7.90;;;6.60;;
6017;SDS011;3037;51.068;13.780;2023-08-21T14:20:44;7.17;;;5.87;;
6017;SDS011;3037;51.068;13.780;2023-08-21T14:23:10;7.53;;;5.57;;
6017;SDS011;3037;51.068;13.780;2023-08-21T14:25:35;5.93;;;5.43;;
6017;SDS011;3037;51.068;13.780;2023-08-21T14:28:02;12.30;;;6.17;;
6017;SDS011;3037;51.068;13.780;2023-08-21T14:30:29;9.03;;;6.37;;
6017;SDS011;3037;51.068;13.780;2023-08-21T14:32:55;7.07;;;6.30;;
6017;SDS011;3037;51.068;13.780;2023-08-21T14:35:20;9.03;;;6.40;;
6017;SDS011;3037;51.068;13.780;2023-08-21T14:37:46;7.90;;;6.40;;
6017;SDS011;3037;51.068;13.780;2023-08-21T14:40:11;7.60;;;6.20;;
6017;SDS011;3037;51.068;13.780;2023-08-21T14:42:37;19.67;;;5.33;;
6017;SDS011;3037;51.068;13.780;2023-08-21T14:45:03;7.23;;;4.83;;
6017;SDS011;3037;51.068;13.780;2023-08-21T14:47:29;6.63;;;6.03;;
6017;SDS011;3037;51.068;13.780;2023-08-21T14:49:55;6.30;;;5.70;;
6017;SDS011;3037;51.068;13.780;2023-08-21T14:52:22;12.43;;;5.90;;
6017;SDS011;3037;51.068;13.780;2023-08-21T14:54:48;6.93;;;5.40;;
6017;SDS011;3037;51.068;13.780;2023-08-21T14:57:15;5.73;;;5.33;;
6017;SDS011;3037;51.068;13.780;2023-08-21T14:59:41;7.90;;;5.83;;
6017;SDS011;3037;51.068;13.780;2023-08-21T15:02:06;5.13;;;4.73;;